createdAt,value
2017-12-01T00:00:27.398Z,83.25
2017-12-01T00:01:32.769Z,83.22
2017-12-01T00:02:38.268Z,83.14
2017-12-01T00:03:43.982Z,83.11
2017-12-01T00:04:50.456Z,83.16
2017-12-01T00:05:56.971Z,83.21
2017-12-01T00:07:02.670Z,83.35
2017-12-01T00:08:08.390Z,83.41
2017-12-01T00:09:14.964Z,83.42
2017-12-01T00:10:20.669Z,83.41
2017-12-01T00:11:26.061Z,83.38
2017-12-01T00:12:31.764Z,83.41
2017-12-01T00:13:37.468Z,83.43
2017-12-01T00:14:43.168Z,83.39
2017-12-01T00:15:48.880Z,83.45
2017-12-01T00:16:55.389Z,83.48
2017-12-01T00:18:01.114Z,83.62
2017-12-01T00:19:06.831Z,83.72
2017-12-01T00:20:13.297Z,83.69
2017-12-01T00:21:19.016Z,83.67
2017-12-01T00:22:25.790Z,83.62
2017-12-01T00:23:31.498Z,83.68
2017-12-01T00:24:37.191Z,83.70
2017-12-01T00:25:42.896Z,83.71
2017-12-01T00:26:49.365Z,83.69
2017-12-01T00:27:55.853Z,83.70
2017-12-01T00:29:01.545Z,83.73
2017-12-01T00:30:08.023Z,83.80
2017-12-01T00:31:14.499Z,83.77
2017-12-01T00:32:20.191Z,83.71
2017-12-01T00:33:25.930Z,83.67
2017-12-01T00:34:31.669Z,83.61
2017-12-01T00:35:37.366Z,83.55
2017-12-01T00:36:43.081Z,83.36
2017-12-01T00:37:49.545Z,83.30
2017-12-01T00:38:56.035Z,83.28
2017-12-01T00:40:01.784Z,83.23
2017-12-01T00:41:07.713Z,83.26
2017-12-01T00:42:13.408Z,83.21
2017-12-01T00:43:19.103Z,83.35
2017-12-01T00:44:24.836Z,83.24
2017-12-01T00:45:30.781Z,83.27
2017-12-01T00:46:36.477Z,83.29
2017-12-01T00:47:42.974Z,83.33
2017-12-01T00:48:48.662Z,83.47
2017-12-01T00:49:54.405Z,83.45
2017-12-01T00:51:00.109Z,83.62
2017-12-01T00:52:05.812Z,83.63
2017-12-01T00:53:11.285Z,83.58
2017-12-01T00:54:16.985Z,83.51
2017-12-01T00:55:23.487Z,83.62
2017-12-01T00:56:29.190Z,83.68
2017-12-01T00:57:35.650Z,83.73
2017-12-01T00:58:41.170Z,83.74
2017-12-01T00:59:47.646Z,83.68
2017-12-01T01:00:53.395Z,83.72
2017-12-01T01:01:59.113Z,83.79
2017-12-01T01:03:04.803Z,83.86
2017-12-01T01:04:10.541Z,83.90
2017-12-01T01:05:15.932Z,83.92
2017-12-01T01:06:22.429Z,83.91
2017-12-01T01:07:28.142Z,84.00
2017-12-01T01:08:33.687Z,84.11
2017-12-01T01:09:40.156Z,84.08
2017-12-01T01:10:46.631Z,84.11
2017-12-01T01:11:52.366Z,84.13
2017-12-01T01:12:58.285Z,84.16
2017-12-01T01:14:04.765Z,84.19
2017-12-01T01:15:10.486Z,84.15
2017-12-01T01:16:16.943Z,84.12
2017-12-01T01:17:23.440Z,84.20
2017-12-01T01:18:28.823Z,84.13
2017-12-01T01:19:34.523Z,84.05
2017-12-01T01:20:39.564Z,84.04
2017-12-01T01:21:44.613Z,83.98
2017-12-01T01:22:50.344Z,84.00
2017-12-01T01:23:55.382Z,83.98
2017-12-01T01:25:01.850Z,84.07
2017-12-01T01:26:08.327Z,84.02
2017-12-01T01:27:14.017Z,84.08
2017-12-01T01:28:19.750Z,84.09
2017-12-01T01:29:25.454Z,84.13
2017-12-01T01:30:31.158Z,84.18
2017-12-01T01:31:36.858Z,84.20
2017-12-01T01:32:42.610Z,84.16
2017-12-01T01:33:48.139Z,84.14
2017-12-01T01:34:53.642Z,84.12
2017-12-01T01:35:59.354Z,84.18
2017-12-01T01:37:05.072Z,84.21
2017-12-01T01:38:10.789Z,84.20
2017-12-01T01:39:16.512Z,84.13
2017-12-01T01:40:22.221Z,84.13
2017-12-01T01:41:28.017Z,84.07
2017-12-01T01:42:33.059Z,84.09
2017-12-01T01:43:38.102Z,84.06
2017-12-01T01:44:43.932Z,83.98
2017-12-01T01:45:49.628Z,83.97
2017-12-01T01:46:54.996Z,83.88
2017-12-01T01:48:00.170Z,83.80
2017-12-01T01:49:05.217Z,83.68
2017-12-01T01:50:10.615Z,83.64
2017-12-01T01:51:17.068Z,83.62
2017-12-01T01:52:22.874Z,83.68
2017-12-01T01:53:27.718Z,83.63
2017-12-01T01:54:33.520Z,83.53
2017-12-01T01:55:38.925Z,83.52
2017-12-01T01:56:44.301Z,83.54
2017-12-01T01:57:49.377Z,83.53
2017-12-01T01:58:54.428Z,83.48
2017-12-01T01:59:59.510Z,83.46
2017-12-01T02:01:05.344Z,83.40
2017-12-01T02:02:11.049Z,83.37
2017-12-01T02:03:16.425Z,83.37
2017-12-01T02:04:22.907Z,83.37
2017-12-01T02:05:28.605Z,83.38
2017-12-01T02:06:33.683Z,83.37
2017-12-01T02:07:38.724Z,83.40
2017-12-01T02:08:44.425Z,83.41
2017-12-01T02:09:50.601Z,83.35
2017-12-01T02:10:55.664Z,83.24
2017-12-01T02:12:00.533Z,83.20
2017-12-01T02:13:05.920Z,83.07
2017-12-01T02:14:11.638Z,82.93
2017-12-01T02:15:17.021Z,82.83
2017-12-01T02:16:23.513Z,82.79
2017-12-01T02:17:28.578Z,82.75
2017-12-01T02:18:33.643Z,82.77
2017-12-01T02:19:39.461Z,82.82
2017-12-01T02:20:44.518Z,82.82
2017-12-01T02:21:49.606Z,82.83
2017-12-01T02:22:54.705Z,82.78
2017-12-01T02:23:59.752Z,82.75
2017-12-01T02:25:04.568Z,82.65
2017-12-01T02:26:09.446Z,82.68
2017-12-01T02:27:14.526Z,82.62
2017-12-01T02:28:22.484Z,82.58
2017-12-01T02:29:27.561Z,82.55
2017-12-01T02:30:33.438Z,82.55
2017-12-01T02:31:38.532Z,82.59
2017-12-01T02:32:44.713Z,82.68
2017-12-01T02:33:49.561Z,82.69
2017-12-01T02:34:54.614Z,82.65
2017-12-01T02:36:00.444Z,82.70
2017-12-01T02:37:05.281Z,82.64
2017-12-01T02:38:11.116Z,82.53
2017-12-01T02:39:16.205Z,82.47
2017-12-01T02:40:21.268Z,82.55
2017-12-01T02:41:26.302Z,82.67
2017-12-01T02:42:32.114Z,82.67
2017-12-01T02:43:37.170Z,82.64
2017-12-01T02:44:43.010Z,82.72
2017-12-01T02:45:48.826Z,82.65
2017-12-01T02:46:53.872Z,82.65
2017-12-01T02:47:59.697Z,82.66
2017-12-01T02:49:04.749Z,82.64
2017-12-01T02:50:10.593Z,82.59
2017-12-01T02:51:16.436Z,82.54
2017-12-01T02:52:22.280Z,82.37
2017-12-01T02:53:27.341Z,82.23
2017-12-01T02:54:32.404Z,82.13
2017-12-01T02:55:37.486Z,82.07
2017-12-01T02:56:42.525Z,82.03
2017-12-01T02:57:47.568Z,81.98
2017-12-01T02:58:52.625Z,81.97
2017-12-01T02:59:58.432Z,81.88
2017-12-01T03:01:03.521Z,81.75
2017-12-01T03:02:08.903Z,81.65
2017-12-01T03:03:13.954Z,81.52
2017-12-01T03:04:18.799Z,81.45
2017-12-01T03:05:23.643Z,81.40
2017-12-01T03:06:28.785Z,81.38
2017-12-01T03:07:33.864Z,81.35
2017-12-01T03:08:38.931Z,81.32
2017-12-01T03:09:43.983Z,81.26
2017-12-01T03:10:49.017Z,81.20
2017-12-01T03:11:54.862Z,81.14
2017-12-01T03:13:00.674Z,81.10
2017-12-01T03:14:05.728Z,81.03
2017-12-01T03:15:10.773Z,80.98
2017-12-01T03:16:15.850Z,80.96
2017-12-01T03:17:20.929Z,81.02
2017-12-01T03:18:25.981Z,81.12
2017-12-01T03:19:31.040Z,81.11
2017-12-01T03:20:36.089Z,81.14
2017-12-01T03:21:41.897Z,81.26
2017-12-01T03:22:46.972Z,81.39
2017-12-01T03:23:52.037Z,81.43
2017-12-01T03:24:57.093Z,81.39
2017-12-01T03:26:02.157Z,81.36
2017-12-01T03:27:07.205Z,81.33
2017-12-01T03:28:12.314Z,81.36
2017-12-01T03:29:17.351Z,81.35
2017-12-01T03:30:22.389Z,81.34
2017-12-01T03:31:27.441Z,81.38
2017-12-01T03:32:32.498Z,81.42
2017-12-01T03:33:37.570Z,81.46
2017-12-01T03:34:42.621Z,81.47
2017-12-01T03:35:47.736Z,81.55
2017-12-01T03:36:52.840Z,81.73
2017-12-01T03:37:57.910Z,81.81
2017-12-01T03:39:03.353Z,81.85
2017-12-01T03:40:08.968Z,81.89
2017-12-01T03:41:14.040Z,81.94
2017-12-01T03:42:19.116Z,81.90
2017-12-01T03:43:24.178Z,81.93
2017-12-01T03:44:29.244Z,82.01
2017-12-01T03:45:34.285Z,82.16
2017-12-01T03:46:39.329Z,82.22
2017-12-01T03:47:44.370Z,82.22
2017-12-01T03:48:49.954Z,82.29
2017-12-01T03:49:54.797Z,82.32
2017-12-01T03:50:59.844Z,82.35
2017-12-01T03:52:05.656Z,82.32
2017-12-01T03:53:10.717Z,82.42
2017-12-01T03:54:16.531Z,82.46
2017-12-01T03:55:21.614Z,82.41
2017-12-01T03:56:26.669Z,82.50
2017-12-01T03:57:31.733Z,82.57
2017-12-01T03:58:37.549Z,82.59
2017-12-01T03:59:42.617Z,82.60
2017-12-01T04:00:47.720Z,82.58
2017-12-01T04:01:53.525Z,82.73
2017-12-01T04:02:58.612Z,82.77
2017-12-01T04:04:04.397Z,82.85
2017-12-01T04:05:09.486Z,82.89
2017-12-01T04:06:14.595Z,82.78
2017-12-01T04:07:20.417Z,82.77
2017-12-01T04:08:25.484Z,82.85
2017-12-01T04:09:30.585Z,82.85
2017-12-01T04:10:36.405Z,82.88
2017-12-01T04:11:41.508Z,82.78
2017-12-01T04:12:46.586Z,82.67
2017-12-01T04:13:51.653Z,82.60
2017-12-01T04:14:56.746Z,82.51
2017-12-01T04:16:01.865Z,82.51
2017-12-01T04:17:07.728Z,82.47
2017-12-01T04:18:12.775Z,82.42
2017-12-01T04:19:17.828Z,82.37
2017-12-01T04:20:22.876Z,82.34
2017-12-01T04:21:27.924Z,82.33
2017-12-01T04:22:32.756Z,82.31
2017-12-01T04:23:37.797Z,82.25
2017-12-01T04:24:42.850Z,82.18
2017-12-01T04:25:48.699Z,82.13
2017-12-01T04:26:53.740Z,82.03
2017-12-01T04:27:59.585Z,81.94
2017-12-01T04:29:05.396Z,81.86
2017-12-01T04:30:11.114Z,81.81
2017-12-01T04:31:16.173Z,81.73
2017-12-01T04:32:21.222Z,81.78
2017-12-01T04:33:26.308Z,81.78
2017-12-01T04:34:31.363Z,81.71
2017-12-01T04:35:37.183Z,81.62
2017-12-01T04:36:42.305Z,81.54
2017-12-01T04:37:47.344Z,81.46
2017-12-01T04:38:53.189Z,81.37
2017-12-01T04:39:59.010Z,81.29
2017-12-01T04:41:04.073Z,81.16
2017-12-01T04:42:09.130Z,81.15
2017-12-01T04:43:14.178Z,81.23
2017-12-01T04:44:19.262Z,81.23
2017-12-01T04:45:24.348Z,81.12
2017-12-01T04:46:29.392Z,80.98
2017-12-01T04:47:35.216Z,80.96
2017-12-01T04:48:40.266Z,81.15
2017-12-01T04:49:46.118Z,81.35
2017-12-01T04:50:51.177Z,81.52
2017-12-01T04:51:56.034Z,81.63
2017-12-01T04:53:01.117Z,81.61
2017-12-01T04:54:05.994Z,81.55
2017-12-01T04:55:11.841Z,81.54
2017-12-01T04:56:17.668Z,81.54
2017-12-01T04:57:23.495Z,81.46
2017-12-01T04:58:28.556Z,81.51
2017-12-01T04:59:34.696Z,81.66
2017-12-01T05:00:40.361Z,81.85
2017-12-01T05:01:45.471Z,81.89
2017-12-01T05:02:50.864Z,81.91
2017-12-01T05:03:55.924Z,82.00
2017-12-01T05:05:01.730Z,82.13
2017-12-01T05:06:06.821Z,82.19
2017-12-01T05:07:11.877Z,82.30
2017-12-01T05:08:16.953Z,82.35
2017-12-01T05:09:22.005Z,82.42
2017-12-01T05:10:27.066Z,82.47
2017-12-01T05:11:32.149Z,82.53
2017-12-01T05:12:37.195Z,82.54
2017-12-01T05:13:42.249Z,82.63
2017-12-01T05:14:47.352Z,82.72
2017-12-01T05:15:52.419Z,82.81
2017-12-01T05:16:58.266Z,83.00
2017-12-01T05:18:04.085Z,83.04
2017-12-01T05:19:10.255Z,83.06
2017-12-01T05:20:16.068Z,83.06
2017-12-01T05:21:21.154Z,83.08
2017-12-01T05:22:26.296Z,83.00
2017-12-01T05:23:31.365Z,82.90
2017-12-01T05:24:36.436Z,82.77
2017-12-01T05:25:41.511Z,82.69
2017-12-01T05:26:46.556Z,82.68
2017-12-01T05:27:52.410Z,82.62
2017-12-01T05:28:57.482Z,82.56
2017-12-01T05:30:02.642Z,82.50
2017-12-01T05:31:08.502Z,82.41
2017-12-01T05:32:13.896Z,82.40
2017-12-01T05:33:19.074Z,82.35
2017-12-01T05:34:24.143Z,82.33
2017-12-01T05:35:29.199Z,82.23
2017-12-01T05:36:35.018Z,82.17
2017-12-01T05:37:40.073Z,82.09
2017-12-01T05:38:45.936Z,82.04
2017-12-01T05:39:51.027Z,81.97
2017-12-01T05:40:56.087Z,81.92
2017-12-01T05:42:02.237Z,81.96
2017-12-01T05:43:07.355Z,81.91
2017-12-01T05:44:12.442Z,81.85
2017-12-01T05:45:17.501Z,81.84
2017-12-01T05:46:22.571Z,81.83
2017-12-01T05:47:27.635Z,81.82
2017-12-01T05:48:33.471Z,81.87
2017-12-01T05:49:38.569Z,81.91
2017-12-01T05:50:43.613Z,81.92
2017-12-01T05:51:48.673Z,81.93
2017-12-01T05:52:54.060Z,81.92
2017-12-01T05:53:59.125Z,81.89
2017-12-01T05:55:04.970Z,81.84
2017-12-01T05:56:10.037Z,81.84
2017-12-01T05:57:15.090Z,81.75
2017-12-01T05:58:20.163Z,81.71
2017-12-01T05:59:25.309Z,81.67
2017-12-01T06:00:30.419Z,81.58
2017-12-01T06:01:35.590Z,81.45
2017-12-01T06:02:40.734Z,81.41
2017-12-01T06:03:46.594Z,81.35
2017-12-01T06:04:52.387Z,81.29
2017-12-01T06:05:57.484Z,81.25
2017-12-01T06:07:02.302Z,81.17
2017-12-01T06:08:07.349Z,81.09
2017-12-01T06:09:12.409Z,80.95
2017-12-01T06:10:17.452Z,80.87
2017-12-01T06:11:23.304Z,80.77
2017-12-01T06:12:29.113Z,80.62
2017-12-01T06:13:34.167Z,80.54
2017-12-01T06:14:39.800Z,80.38
2017-12-01T06:15:45.627Z,80.29
2017-12-01T06:16:50.693Z,80.14
2017-12-01T06:17:55.757Z,80.00
2017-12-01T06:19:00.789Z,79.88
2017-12-01T06:20:05.918Z,79.71
2017-12-01T06:21:10.950Z,79.41
2017-12-01T06:22:16.014Z,79.04
2017-12-01T06:23:21.049Z,78.75
2017-12-01T06:24:26.101Z,78.55
2017-12-01T06:25:31.133Z,78.37
2017-12-01T06:26:36.183Z,78.27
2017-12-01T06:27:41.398Z,78.21
2017-12-01T06:28:46.196Z,78.24
2017-12-01T06:29:51.243Z,78.16
2017-12-01T06:30:56.633Z,78.04
2017-12-01T06:32:01.670Z,77.89
2017-12-01T06:33:06.876Z,77.81
2017-12-01T06:34:11.962Z,77.75
2017-12-01T06:35:17.024Z,77.71
2017-12-01T06:36:22.067Z,77.61
2017-12-01T06:37:27.108Z,77.51
2017-12-01T06:38:32.204Z,77.40
2017-12-01T06:39:37.273Z,77.41
2017-12-01T06:40:42.317Z,77.33
2017-12-01T06:41:47.489Z,77.30
2017-12-01T06:42:52.296Z,77.27
2017-12-01T06:43:58.516Z,77.18
2017-12-01T06:45:03.607Z,77.17
2017-12-01T06:46:08.749Z,77.09
2017-12-01T06:47:13.963Z,77.11
2017-12-01T06:48:19.661Z,76.93
2017-12-01T06:49:25.049Z,76.95
2017-12-01T06:50:30.903Z,76.87
2017-12-01T06:51:36.379Z,76.79
2017-12-01T06:52:41.249Z,76.80
2017-12-01T06:53:46.310Z,76.77
2017-12-01T06:54:52.149Z,76.60
2017-12-01T06:55:58.188Z,76.45
2017-12-01T06:57:03.249Z,76.29
2017-12-01T06:58:08.897Z,76.09
2017-12-01T06:59:14.629Z,75.95
2017-12-01T07:00:19.689Z,75.76
2017-12-01T07:01:25.081Z,75.55
2017-12-01T07:02:31.540Z,75.47
2017-12-01T07:03:36.601Z,75.43
2017-12-01T07:04:41.963Z,75.49
2017-12-01T07:05:47.365Z,75.46
2017-12-01T07:06:52.237Z,75.39
2017-12-01T07:07:58.745Z,75.29
2017-12-01T07:09:03.924Z,75.11
2017-12-01T07:10:10.386Z,74.93
2017-12-01T07:11:16.693Z,74.57
2017-12-01T07:12:22.447Z,74.46
2017-12-01T07:13:28.152Z,74.51
2017-12-01T07:14:33.864Z,74.45
2017-12-01T07:15:40.335Z,74.41
2017-12-01T07:16:46.081Z,74.30
2017-12-01T07:17:51.618Z,74.23
2017-12-01T07:18:57.317Z,74.28
2017-12-01T07:20:03.056Z,74.30
2017-12-01T07:21:08.752Z,74.27
2017-12-01T07:22:14.480Z,74.31
2017-12-01T07:23:20.172Z,74.33
2017-12-01T07:24:25.887Z,74.35
2017-12-01T07:25:31.581Z,74.38
2017-12-01T07:26:54.589Z,74.36
2017-12-01T07:27:59.417Z,74.40
2017-12-01T07:29:05.143Z,74.45
2017-12-01T07:30:10.844Z,74.45
2017-12-01T07:31:16.559Z,74.34
2017-12-01T07:32:23.089Z,74.26
2017-12-01T07:33:29.000Z,74.29
2017-12-01T07:34:34.717Z,74.32
2017-12-01T07:35:40.435Z,74.26
2017-12-01T07:36:46.120Z,74.16
2017-12-01T07:37:51.650Z,74.11
2017-12-01T07:38:57.177Z,74.03
2017-12-01T07:40:02.720Z,74.01
2017-12-01T07:41:08.250Z,74.08
2017-12-01T07:42:13.762Z,74.10
2017-12-01T07:43:20.040Z,74.09
2017-12-01T07:46:10.342Z,74.09
2017-12-01T07:47:16.097Z,74.06
2017-12-01T07:48:21.618Z,74.08
2017-12-01T07:49:27.150Z,74.14
2017-12-01T07:50:32.907Z,74.18
2017-12-01T07:51:38.434Z,74.11
2017-12-01T07:52:43.984Z,74.12
2017-12-01T07:53:49.494Z,74.06
2017-12-01T07:54:55.014Z,73.99
2017-12-01T07:56:01.310Z,74.01
2017-12-01T07:57:06.846Z,73.94
2017-12-01T07:58:12.354Z,73.81
2017-12-01T07:59:17.886Z,73.78
2017-12-01T08:00:23.406Z,73.76
2017-12-01T08:01:29.729Z,73.71
2017-12-01T08:02:35.244Z,73.70
2017-12-01T08:03:40.760Z,73.78
2017-12-01T08:04:46.290Z,73.83
2017-12-01T08:05:51.833Z,73.85
2017-12-01T08:06:57.389Z,73.85
2017-12-01T08:08:03.002Z,73.88
2017-12-01T08:09:08.516Z,73.83
2017-12-01T08:10:14.817Z,73.71
2017-12-01T08:11:20.361Z,73.68
2017-12-01T08:12:25.899Z,73.62
2017-12-01T08:13:31.408Z,73.46
2017-12-01T08:14:36.928Z,73.38
2017-12-01T08:15:59.122Z,73.39
2017-12-01T08:17:21.288Z,73.43
2017-12-01T08:18:43.517Z,73.42
2017-12-01T08:19:48.396Z,73.39
2017-12-01T08:21:08.125Z,73.35
2017-12-01T08:22:30.301Z,73.25
2017-12-01T08:23:53.263Z,73.05
2017-12-01T08:25:16.219Z,72.71
2017-12-01T08:26:21.730Z,72.58
2017-12-01T08:27:28.016Z,72.60
2017-12-01T08:28:33.530Z,72.71
2017-12-01T08:29:39.836Z,72.66
2017-12-01T08:30:45.371Z,72.58
2017-12-01T08:31:50.889Z,72.56
2017-12-01T08:32:56.455Z,72.60
2017-12-01T08:34:02.328Z,72.65
2017-12-01T08:35:08.847Z,72.72
2017-12-01T08:36:14.559Z,72.76
2017-12-01T08:37:20.252Z,72.83
2017-12-01T08:38:25.955Z,72.89
2017-12-01T08:39:31.670Z,72.91
2017-12-01T08:40:37.123Z,72.90
2017-12-01T08:41:43.438Z,72.84
2017-12-01T08:42:49.909Z,72.76
2017-12-01T08:43:55.618Z,72.34
2017-12-01T08:45:01.322Z,72.01
2017-12-01T08:46:06.537Z,71.91
2017-12-01T08:47:11.907Z,71.62
2017-12-01T08:48:17.287Z,71.37
2017-12-01T08:49:23.753Z,71.08
2017-12-01T08:50:29.464Z,70.79
2017-12-01T08:51:36.868Z,70.59
2017-12-01T08:52:43.442Z,70.41
2017-12-01T08:53:49.144Z,70.30
2017-12-01T08:54:54.519Z,70.16
2017-12-01T08:56:00.233Z,69.93
2017-12-01T08:57:06.889Z,69.73
2017-12-01T08:58:13.672Z,69.28
2017-12-01T08:59:19.390Z,68.99
2017-12-01T09:00:25.206Z,68.77
2017-12-01T09:01:30.921Z,68.73
2017-12-01T09:02:36.667Z,68.65
2017-12-01T09:03:42.370Z,68.62
2017-12-01T09:04:47.553Z,68.67
2017-12-01T09:05:53.249Z,68.91
2017-12-01T09:06:58.956Z,68.94
2017-12-01T09:08:04.767Z,68.68
2017-12-01T09:09:10.661Z,68.51
2017-12-01T09:10:17.136Z,68.61
2017-12-01T09:11:22.836Z,68.73
2017-12-01T09:12:28.579Z,68.88
2017-12-01T09:13:34.310Z,68.98
2017-12-01T09:14:39.906Z,68.88
2017-12-01T09:15:45.628Z,68.83
2017-12-01T09:16:51.342Z,68.84
2017-12-01T09:17:56.884Z,68.82
2017-12-01T09:19:03.389Z,68.76
2017-12-01T09:20:08.925Z,68.68
2017-12-01T09:21:14.629Z,68.47
2017-12-01T09:22:20.919Z,68.51
2017-12-01T09:23:26.622Z,68.36
2017-12-01T09:24:32.860Z,67.99
2017-12-01T09:25:38.576Z,67.67
2017-12-01T09:26:44.276Z,67.43
2017-12-01T09:27:49.990Z,67.22
2017-12-01T09:28:55.537Z,66.84
2017-12-01T09:30:02.249Z,66.46
2017-12-01T09:31:07.621Z,66.18
2017-12-01T09:32:14.107Z,65.96
2017-12-01T09:33:19.610Z,66.00
2017-12-01T09:34:25.321Z,66.11
2017-12-01T09:35:31.056Z,66.04
2017-12-01T09:36:36.765Z,66.28
2017-12-01T09:37:42.480Z,66.53
2017-12-01T09:38:48.763Z,66.51
2017-12-01T09:39:54.478Z,66.77
2017-12-01T09:41:00.645Z,66.81
2017-12-01T09:42:06.105Z,66.76
2017-12-01T09:43:11.165Z,66.71
2017-12-01T09:44:16.225Z,66.51
2017-12-01T09:45:21.274Z,66.33
2017-12-01T09:46:27.013Z,65.77
2017-12-01T09:47:32.740Z,64.93
2017-12-01T09:48:38.449Z,64.55
2017-12-01T09:49:44.938Z,63.98
2017-12-01T09:50:50.682Z,63.62
2017-12-01T09:51:56.424Z,63.15
2017-12-01T09:53:02.140Z,63.09
2017-12-01T09:54:08.629Z,62.92
2017-12-01T09:55:14.374Z,62.87
2017-12-01T09:56:19.571Z,62.94
2017-12-01T09:57:26.078Z,62.95
2017-12-01T09:58:31.800Z,63.21
2017-12-01T09:59:37.501Z,63.22
2017-12-01T10:00:44.194Z,63.41
2017-12-01T10:01:49.958Z,63.52
2017-12-01T10:02:56.290Z,63.82
2017-12-01T10:04:02.011Z,64.15
2017-12-01T10:05:08.487Z,64.34
2017-12-01T10:06:14.205Z,64.54
2017-12-01T10:07:20.690Z,64.83
2017-12-01T10:08:27.180Z,64.96
2017-12-01T10:09:32.924Z,65.03
2017-12-01T10:10:38.647Z,64.98
2017-12-01T10:11:44.342Z,65.02
2017-12-01T10:12:50.890Z,65.11
2017-12-01T10:13:56.645Z,65.20
2017-12-01T10:15:03.125Z,65.26
2017-12-01T10:16:08.837Z,65.28
2017-12-01T10:17:15.355Z,65.23
2017-12-01T10:18:21.108Z,65.22
2017-12-01T10:19:26.850Z,65.14
2017-12-01T10:20:32.571Z,65.08
2017-12-01T10:21:38.283Z,64.95
2017-12-01T10:22:44.029Z,64.82
2017-12-01T10:23:49.744Z,64.77
2017-12-01T10:24:56.272Z,64.73
2017-12-01T10:26:01.980Z,64.69
2017-12-01T10:27:07.689Z,64.65
2017-12-01T10:28:13.214Z,64.60
2017-12-01T10:29:18.932Z,64.50
2017-12-01T10:30:24.412Z,64.32
2017-12-01T10:31:30.888Z,64.21
2017-12-01T10:32:36.262Z,64.07
2017-12-01T10:33:41.972Z,63.91
2017-12-01T10:34:47.695Z,63.80
2017-12-01T10:35:53.445Z,63.71
2017-12-01T10:36:59.187Z,63.72
2017-12-01T10:38:04.633Z,63.54
2017-12-01T10:39:10.331Z,63.33
2017-12-01T10:40:16.153Z,62.98
2017-12-01T10:41:21.929Z,62.95
2017-12-01T10:42:27.658Z,62.93
2017-12-01T10:43:33.612Z,62.76
2017-12-01T10:44:40.122Z,62.66
2017-12-01T10:45:45.497Z,62.60
2017-12-01T10:46:52.001Z,62.34
2017-12-01T10:47:57.730Z,62.45
2017-12-01T10:49:03.441Z,62.09
2017-12-01T10:50:09.934Z,61.85
2017-12-01T10:51:14.786Z,61.85
2017-12-01T10:52:20.529Z,61.94
2017-12-01T10:53:26.248Z,61.92
2017-12-01T10:54:31.989Z,61.96
2017-12-01T10:55:37.693Z,62.01
2017-12-01T10:56:43.621Z,62.09
2017-12-01T10:57:50.121Z,62.11
2017-12-01T10:58:55.858Z,62.10
2017-12-01T11:00:01.588Z,62.13
2017-12-01T11:01:07.305Z,62.25
2017-12-01T11:02:13.803Z,62.46
2017-12-01T11:03:19.546Z,62.72
2017-12-01T11:04:25.090Z,62.82
2017-12-01T11:05:30.806Z,62.90
2017-12-01T11:06:36.525Z,62.94
2017-12-01T11:07:42.801Z,63.13
2017-12-01T11:08:48.536Z,63.18
2017-12-01T11:09:54.282Z,63.36
2017-12-01T11:10:59.988Z,63.69
2017-12-01T11:12:06.547Z,63.98
2017-12-01T11:13:12.302Z,64.08
2017-12-01T11:14:18.197Z,64.19
2017-12-01T11:15:23.909Z,64.24
2017-12-01T11:16:29.625Z,64.25
2017-12-01T11:17:36.108Z,64.34
2017-12-01T11:18:41.830Z,64.26
2017-12-01T11:19:47.584Z,64.25
2017-12-01T11:20:53.292Z,64.29
2017-12-01T11:21:59.785Z,64.33
2017-12-01T11:23:05.495Z,64.50
2017-12-01T11:24:11.049Z,64.52
2017-12-01T11:25:17.557Z,64.67
2017-12-01T11:26:23.274Z,64.98
2017-12-01T11:27:29.005Z,65.11
2017-12-01T11:28:34.754Z,65.06
2017-12-01T11:29:40.796Z,65.02
2017-12-01T11:30:46.535Z,65.04
2017-12-01T11:31:52.286Z,65.01
2017-12-01T11:32:58.946Z,64.88
2017-12-01T11:34:04.661Z,64.67
2017-12-01T11:35:11.138Z,64.55
2017-12-01T11:36:16.896Z,64.57
2017-12-01T11:37:22.597Z,64.52
2017-12-01T11:38:28.315Z,64.47
2017-12-01T11:39:34.028Z,64.39
2017-12-01T11:40:39.740Z,64.37
2017-12-01T11:41:45.481Z,64.34
2017-12-01T11:42:51.201Z,64.34
2017-12-01T11:43:57.680Z,64.18
2017-12-01T11:45:03.415Z,64.13
2017-12-01T11:46:08.592Z,64.12
2017-12-01T11:47:14.334Z,64.11
2017-12-01T11:48:20.061Z,64.07
2017-12-01T11:49:25.772Z,64.11
2017-12-01T11:50:31.857Z,64.14
2017-12-01T11:51:37.257Z,64.18
2017-12-01T11:52:43.049Z,64.23
2017-12-01T11:53:48.810Z,64.09
2017-12-01T11:54:54.720Z,64.07
2017-12-01T11:56:00.097Z,64.14
2017-12-01T11:57:05.816Z,64.13
2017-12-01T11:58:10.899Z,64.19
2017-12-01T11:59:16.604Z,64.24
2017-12-01T12:00:21.441Z,64.23
2017-12-01T12:01:26.493Z,64.17
2017-12-01T12:02:31.632Z,64.15
2017-12-01T12:03:37.369Z,64.08
2017-12-01T12:04:42.428Z,63.83
2017-12-01T12:05:48.132Z,63.81
2017-12-01T12:06:53.521Z,63.65
2017-12-01T12:07:58.904Z,63.33
2017-12-01T12:09:03.578Z,63.55
2017-12-01T12:10:08.641Z,63.60
2017-12-01T12:11:14.018Z,63.68
2017-12-01T12:12:19.917Z,63.80
2017-12-01T12:13:25.302Z,63.90
2017-12-01T12:14:30.173Z,64.04
2017-12-01T12:15:35.562Z,64.18
2017-12-01T12:16:40.758Z,64.25
2017-12-01T12:17:46.912Z,64.25
2017-12-01T12:18:52.325Z,64.25
2017-12-01T12:19:57.608Z,64.38
2017-12-01T12:21:03.199Z,64.59
2017-12-01T12:22:08.940Z,64.65
2017-12-01T12:23:14.321Z,64.62
2017-12-01T12:24:19.713Z,64.60
2017-12-01T12:25:24.793Z,64.70
2017-12-01T12:26:30.194Z,65.09
2017-12-01T12:27:36.026Z,65.29
2017-12-01T12:28:42.215Z,65.48
2017-12-01T12:29:47.264Z,65.56
2017-12-01T12:30:53.000Z,65.69
2017-12-01T12:31:58.407Z,65.55
2017-12-01T12:33:03.900Z,65.28
2017-12-01T12:34:09.145Z,65.30
2017-12-01T12:35:14.964Z,65.66
2017-12-01T12:36:20.040Z,65.73
2017-12-01T12:37:25.221Z,65.71
2017-12-01T12:38:30.280Z,65.73
2017-12-01T12:39:35.327Z,65.79
2017-12-01T12:40:40.724Z,65.94
2017-12-01T12:41:46.924Z,66.16
2017-12-01T12:42:51.990Z,66.15
2017-12-01T12:43:56.871Z,66.11
2017-12-01T12:45:01.920Z,66.09
2017-12-01T12:46:07.014Z,66.28
2017-12-01T12:47:11.928Z,66.38
2017-12-01T12:48:16.976Z,66.59
2017-12-01T12:49:22.697Z,66.72
2017-12-01T12:50:27.785Z,66.63
2017-12-01T12:51:33.770Z,66.38
2017-12-01T12:52:39.261Z,66.25
2017-12-01T12:53:44.461Z,66.23
2017-12-01T12:54:49.521Z,66.26
2017-12-01T12:55:56.560Z,66.39
2017-12-01T12:57:01.473Z,66.57
2017-12-01T12:58:06.697Z,66.84
2017-12-01T12:59:11.749Z,66.86
2017-12-01T13:00:16.852Z,66.77
2017-12-01T13:01:21.923Z,66.70
2017-12-01T13:02:27.728Z,66.75
2017-12-01T13:03:32.820Z,66.79
2017-12-01T13:04:37.689Z,66.62
2017-12-01T13:05:42.733Z,66.52
2017-12-01T13:06:48.370Z,66.62
2017-12-01T13:07:54.528Z,66.69
2017-12-01T13:09:00.538Z,66.74
2017-12-01T13:10:05.625Z,66.81
2017-12-01T13:11:11.014Z,66.83
2017-12-01T13:12:15.865Z,66.77
2017-12-01T13:13:20.912Z,66.62
2017-12-01T13:14:26.316Z,66.49
2017-12-01T13:15:31.994Z,66.33
2017-12-01T13:16:36.877Z,66.20
2017-12-01T13:17:42.689Z,66.09
2017-12-01T13:18:48.011Z,66.00
2017-12-01T13:19:53.558Z,66.12
2017-12-01T13:20:58.600Z,66.25
2017-12-01T13:22:04.813Z,66.24
2017-12-01T13:23:09.853Z,66.24
2017-12-01T13:24:14.917Z,66.31
2017-12-01T13:25:20.040Z,66.35
2017-12-01T13:26:25.866Z,66.39
2017-12-01T13:27:30.932Z,66.39
2017-12-01T13:28:35.987Z,66.42
2017-12-01T13:29:41.045Z,66.42
2017-12-01T13:30:46.884Z,66.42
2017-12-01T13:31:52.714Z,66.53
2017-12-01T13:32:57.765Z,66.60
2017-12-01T13:34:03.913Z,66.67
2017-12-01T13:35:09.753Z,66.68
2017-12-01T13:36:15.921Z,66.60
2017-12-01T13:37:22.065Z,66.53
2017-12-01T13:38:27.904Z,66.58
2017-12-01T13:39:34.049Z,66.60
2017-12-01T13:40:40.216Z,66.55
2017-12-01T13:41:46.712Z,66.57
2017-12-01T13:42:52.101Z,66.61
2017-12-01T13:43:58.249Z,66.69
2017-12-01T13:45:04.070Z,66.75
2017-12-01T13:46:09.333Z,66.69
2017-12-01T13:47:14.994Z,66.71
2017-12-01T13:48:20.041Z,66.69
2017-12-01T13:49:25.770Z,66.78
2017-12-01T13:50:30.692Z,66.83
2017-12-01T13:51:35.729Z,66.75
2017-12-01T13:52:41.300Z,66.54
2017-12-01T13:53:47.814Z,66.62
2017-12-01T13:54:53.186Z,66.59
2017-12-01T13:55:58.050Z,66.71
2017-12-01T13:57:03.131Z,66.74
2017-12-01T13:58:08.688Z,66.83
2017-12-01T13:59:14.850Z,66.83
2017-12-01T14:00:19.905Z,66.85
2017-12-01T14:01:25.293Z,66.79
2017-12-01T14:02:31.277Z,66.75
2017-12-01T14:03:36.722Z,66.88
2017-12-01T14:04:41.921Z,67.07
2017-12-01T14:05:47.699Z,67.19
2017-12-01T14:06:53.576Z,67.29
2017-12-01T14:08:00.077Z,67.33